Time;durP1;ratioP1;P1;durP2;ratioP2;P2;SDS_P1;SDS_P2;PMS_P1;PMS_P2;Temp;Humidity;BMP_temperature;BMP_pressure;BME280_temperature;BME280_humidity;BME280_pressure;Samples;Min_cycle;Max_cycle;Signal;HPM_P1;HPM_P2
2022/05/22 00:01:15;;;;;;;8.32;3.13;;;9.40;99.90;;;;;;5046504;28;20189;-78
2022/05/22 00:03:41;;;;;;;6.82;3.28;;;9.30;99.90;;;;;;5045972;28;20490;-78
2022/05/22 00:06:07;;;;;;;8.02;3.33;;;9.20;99.90;;;;;;5064170;28;20043;-78
2022/05/22 00:08:32;;;;;;;7.22;2.83;;;9.20;99.90;;;;;;5064778;28;20476;-77
2022/05/22 00:10:58;;;;;;;6.00;2.67;;;9.20;99.90;;;;;;5063209;28;20041;-77
2022/05/22 00:13:24;;;;;;;6.90;3.33;;;9.10;99.90;;;;;;5064243;28;20043;-77
2022/05/22 00:18:33;;;;;;;4.45;2.55;;;9.10;99.90;;;;;;5065331;28;20052;-78
2022/05/22 00:20:59;;;;;;;7.78;4.03;;;9.00;99.90;;;;;;5066457;28;20142;-77
2022/05/22 00:23:24;;;;;;;7.80;3.13;;;9.00;99.90;;;;;;5065143;28;20387;-77
2022/05/22 00:25:54;;;;;;;9.57;3.28;;;9.00;99.90;;;;;;5061427;28;20052;-77
2022/05/22 00:28:20;;;;;;;8.88;3.10;;;9.00;99.90;;;;;;5064674;28;20090;-77
2022/05/22 00:30:45;;;;;;;9.30;3.88;;;9.00;99.90;;;;;;5063228;28;20029;-78
2022/05/22 00:33:11;;;;;;;6.13;3.33;;;9.00;99.90;;;;;;5058770;28;20466;-78
2022/05/22 00:35:37;;;;;;;10.30;3.28;;;8.90;99.90;;;;;;5066721;28;20483;-77
2022/05/22 00:38:03;;;;;;;6.55;2.42;;;8.90;99.90;;;;;;5066001;28;20404;-77
2022/05/22 00:40:28;;;;;;;6.05;3.17;;;8.80;99.90;;;;;;5068840;28;20045;-78
2022/05/22 00:42:54;;;;;;;7.00;3.22;;;8.80;99.90;;;;;;5066343;28;20118;-77
2022/05/22 00:45:19;;;;;;;8.00;3.20;;;8.80;99.90;;;;;;5065730;28;20135;-78
2022/05/22 00:47:45;;;;;;;11.35;4.00;;;8.80;99.90;;;;;;5049000;28;20069;-77
2022/05/22 00:50:11;;;;;;;9.90;3.75;;;8.70;99.90;;;;;;5065580;28;20046;-77
2022/05/22 00:52:45;;;;;;;5.07;3.13;;;8.70;99.90;;;;;;5067762;28;20047;-77
2022/05/22 00:55:16;;;;;;;8.32;4.75;;;8.70;99.90;;;;;;5064809;28;20496;-77
2022/05/22 00:58:06;;;;;;;8.90;3.88;;;8.70;99.90;;;;;;5065996;28;20052;-77
2022/05/22 01:00:35;;;;;;;6.15;2.88;;;8.60;99.90;;;;;;5045696;28;20434;-77
2022/05/22 01:05:51;;;;;;;5.90;2.25;;;8.60;99.90;;;;;;5064130;28;20045;-77
2022/05/22 01:08:17;;;;;;;4.68;2.05;;;8.50;99.90;;;;;;5067006;28;20037;-77
2022/05/22 01:10:45;;;;;;;6.07;1.98;;;8.50;99.90;;;;;;5067712;28;20044;-77
2022/05/22 01:13:17;;;;;;;3.88;2.00;;;8.50;99.90;;;;;;5064657;28;20203;-77
2022/05/22 01:15:43;;;;;;;3.38;1.20;;;8.50;99.90;;;;;;5065748;28;20499;-77
2022/05/22 01:18:10;;;;;;;3.13;1.17;;;8.50;99.90;;;;;;5069425;28;20037;-77
2022/05/22 01:20:36;;;;;;;5.35;1.25;;;8.50;99.90;;;;;;5068801;28;20029;-77
2022/05/22 01:23:02;;;;;;;2.63;1.40;;;8.50;99.90;;;;;;5063532;28;20040;-77
2022/05/22 01:25:28;;;;;;;2.05;1.08;;;8.40;99.90;;;;;;5067944;28;20631;-77
2022/05/22 01:27:54;;;;;;;2.45;0.90;;;8.40;99.90;;;;;;5068813;28;20040;-77
2022/05/22 01:30:21;;;;;;;2.40;1.40;;;8.40;99.90;;;;;;5069747;28;20032;-77
2022/05/22 01:32:48;;;;;;;6.65;2.20;;;8.30;99.90;;;;;;5067162;28;20119;-77
2022/05/22 01:35:21;;;;;;;4.30;1.52;;;8.30;99.90;;;;;;5053469;28;20475;-78
2022/05/22 01:37:48;;;;;;;5.25;1.48;;;8.20;99.90;;;;;;5065148;28;20037;-77
2022/05/22 01:40:14;;;;;;;3.45;1.65;;;8.20;99.90;;;;;;5070338;28;20047;-77
2022/05/22 01:42:41;;;;;;;8.45;3.03;;;8.10;99.90;;;;;;5064737;28;20537;-78
2022/05/22 01:45:10;;;;;;;6.10;3.10;;;8.10;99.90;;;;;;5050172;28;20098;-78
2022/05/22 01:47:37;;;;;;;8.27;4.07;;;8.20;99.90;;;;;;5067357;28;20044;-78
2022/05/22 01:50:03;;;;;;;6.13;2.80;;;8.20;99.90;;;;;;5069024;28;20044;-78
2022/05/22 01:52:28;;;;;;;8.82;4.55;;;8.20;99.90;;;;;;5064222;28;20033;-78
2022/05/22 01:54:54;;;;;;;7.90;3.40;;;8.20;99.90;;;;;;5068950;28;20094;-77
2022/05/22 01:57:20;;;;;;;5.18;2.05;;;8.10;99.90;;;;;;5067339;28;20047;-78
2022/05/22 01:59:46;;;;;;;7.75;2.50;;;8.10;99.90;;;;;;5068804;28;20363;-78
2022/05/22 02:02:11;;;;;;;3.38;1.98;;;8.10;99.90;;;;;;5069253;28;20037;-78
2022/05/22 02:04:37;;;;;;;4.03;2.55;;;8.10;99.90;;;;;;5070640;28;20051;-78
2022/05/22 02:09:47;;;;;;;8.52;3.33;;;8.00;99.90;;;;;;5067977;28;20072;-77
2022/05/22 02:12:12;;;;;;;9.90;3.75;;;8.00;99.90;;;;;;5065258;28;20063;-78
2022/05/22 02:14:38;;;;;;;11.43;4.13;;;8.00;99.90;;;;;;5066757;28;20090;-78
2022/05/22 02:17:04;;;;;;;5.50;3.38;;;8.00;99.90;;;;;;5068252;28;20040;-78
2022/05/22 02:19:29;;;;;;;11.95;5.47;;;8.00;99.90;;;;;;5066817;28;20064;-78
2022/05/22 02:21:56;;;;;;;8.65;4.57;;;8.00;99.90;;;;;;5069918;28;20051;-78
2022/05/22 02:24:22;;;;;;;8.77;4.53;;;8.00;99.90;;;;;;5067071;28;20039;-78
2022/05/22 02:26:47;;;;;;;9.25;3.85;;;8.00;99.90;;;;;;5068158;28;20029;-78
2022/05/22 02:29:13;;;;;;;6.15;3.15;;;8.00;99.90;;;;;;5051221;28;20049;-78
2022/05/22 02:31:38;;;;;;;9.20;3.80;;;8.00;99.90;;;;;;5068109;28;20071;-78
2022/05/22 02:34:04;;;;;;;7.65;3.42;;;7.90;99.90;;;;;;5049514;28;20040;-78
2022/05/22 02:36:30;;;;;;;6.70;3.20;;;7.90;99.90;;;;;;5069030;28;20766;-78
2022/05/22 02:38:55;;;;;;;9.75;5.43;;;7.90;99.90;;;;;;5066998;28;20040;-78
2022/05/22 02:41:21;;;;;;;6.40;3.08;;;7.90;99.90;;;;;;5067104;28;20323;-78
2022/05/22 02:43:47;;;;;;;8.68;3.00;;;7.90;99.90;;;;;;5067205;28;20076;-78
2022/05/22 02:46:15;;;;;;;4.70;2.65;;;7.90;99.90;;;;;;5066701;28;20533;-78
2022/05/22 02:48:42;;;;;;;6.03;2.47;;;7.90;99.90;;;;;;5064990;28;20040;-78
2022/05/22 02:51:16;;;;;;;4.25;2.90;;;7.90;99.90;;;;;;5063144;28;20075;-78
2022/05/22 02:53:42;;;;;;;4.85;2.70;;;7.90;99.90;;;;;;5064827;28;20048;-78
2022/05/22 02:56:10;;;;;;;5.25;3.10;;;7.80;99.90;;;;;;5062706;28;20049;-78
2022/05/22 02:58:36;;;;;;;6.47;3.22;;;7.80;99.90;;;;;;5063149;28;20369;-78
2022/05/22 03:01:03;;;;;;;7.28;3.80;;;7.80;99.90;;;;;;5061935;28;20040;-78
2022/05/22 03:03:29;;;;;;;9.57;3.45;;;7.80;99.90;;;;;;5060255;28;20087;-78
2022/05/22 03:08:38;;;;;;;7.47;3.42;;;7.80;99.90;;;;;;5060976;28;20388;-78
2022/05/22 03:11:05;;;;;;;10.50;4.15;;;7.70;99.90;;;;;;5065120;28;20048;-78
2022/05/22 03:13:31;;;;;;;6.80;3.67;;;7.70;99.90;;;;;;5063574;28;20062;-78
2022/05/22 03:15:56;;;;;;;8.23;3.35;;;7.70;99.90;;;;;;5049784;28;20040;-78
2022/05/22 03:18:22;;;;;;;8.80;4.75;;;7.70;99.90;;;;;;5064218;28;20124;-78
2022/05/22 03:20:47;;;;;;;9.48;4.13;;;7.70;99.90;;;;;;5064626;28;20064;-78
2022/05/22 03:23:13;;;;;;;6.72;3.60;;;7.70;99.90;;;;;;5065275;28;20036;-78
2022/05/22 03:25:39;;;;;;;9.30;4.10;;;7.70;99.90;;;;;;5064156;28;21855;-78
2022/05/22 03:28:05;;;;;;;8.23;3.90;;;7.70;99.90;;;;;;5064214;28;20033;-78
2022/05/22 03:30:31;;;;;;;7.60;3.75;;;7.70;99.90;;;;;;5062966;28;20086;-78
2022/05/22 03:32:57;;;;;;;8.65;3.55;;;7.70;99.90;;;;;;5063421;28;20418;-78
2022/05/22 03:35:22;;;;;;;6.35;3.10;;;7.80;99.90;;;;;;5062415;28;20447;-78
2022/05/22 03:37:48;;;;;;;8.15;3.75;;;7.80;99.90;;;;;;5059857;28;20072;-78
2022/05/22 03:40:14;;;;;;;5.53;3.30;;;7.70;99.90;;;;;;5062282;28;20071;-78
2022/05/22 03:42:40;;;;;;;8.05;4.35;;;7.80;99.90;;;;;;5060294;28;20518;-78
2022/05/22 03:45:06;;;;;;;4.43;2.92;;;7.80;99.90;;;;;;5061577;28;20081;-78
2022/05/22 03:47:32;;;;;;;4.97;2.20;;;7.80;99.90;;;;;;5063623;28;20044;-78
2022/05/22 03:49:59;;;;;;;4.00;1.55;;;7.80;99.90;;;;;;5069146;28;20047;-78
2022/05/22 03:52:24;;;;;;;3.50;1.05;;;7.70;99.90;;;;;;5065941;28;20036;-78
2022/05/22 03:54:50;;;;;;;7.25;2.00;;;7.70;99.90;;;;;;5047287;28;20048;-78
2022/05/22 03:57:16;;;;;;;5.35;1.30;;;7.70;99.90;;;;;;5063967;28;20485;-78
2022/05/22 03:59:41;;;;;;;4.70;1.45;;;7.70;99.90;;;;;;5059983;28;20049;-78
2022/05/22 04:02:07;;;;;;;5.00;1.60;;;7.70;99.90;;;;;;5062337;28;20055;-78
2022/05/22 04:04:33;;;;;;;5.43;1.85;;;7.60;99.90;;;;;;5062623;28;20076;-78
2022/05/22 04:06:59;;;;;;;4.63;1.40;;;7.60;99.90;;;;;;5063336;28;20036;-78
2022/05/22 04:09:28;;;;;;;2.95;1.92;;;7.70;99.90;;;;;;5061049;28;20070;-78
2022/05/22 04:11:54;;;;;;;2.72;1.95;;;7.70;99.90;;;;;;5061146;28;20063;-78
2022/05/22 04:14:19;;;;;;;2.65;1.40;;;7.70;99.90;;;;;;5061590;28;20037;-78
2022/05/22 04:16:45;;;;;;;4.90;2.08;;;7.80;99.90;;;;;;5044033;28;20406;-78
2022/05/22 04:19:11;;;;;;;3.75;2.47;;;7.80;99.90;;;;;;5062414;28;20028;-78
2022/05/22 04:21:36;;;;;;;7.88;3.03;;;7.90;99.90;;;;;;5065051;28;20044;-78
2022/05/22 04:26:46;;;;;;;6.88;4.93;;;8.00;99.90;;;;;;5065158;28;20040;-78
2022/05/22 04:29:12;;;;;;;5.43;3.20;;;8.10;99.90;;;;;;5065548;28;20536;-78
2022/05/22 04:31:38;;;;;;;7.43;3.65;;;8.20;99.90;;;;;;5064447;28;20032;-78
2022/05/22 04:34:03;;;;;;;8.70;3.30;;;8.30;99.90;;;;;;5064069;28;20567;-78
2022/05/22 04:36:29;;;;;;;8.52;4.18;;;8.40;99.90;;;;;;5062482;28;20039;-78
2022/05/22 04:38:55;;;;;;;10.05;4.68;;;8.50;99.90;;;;;;5061734;28;20118;-78
2022/05/22 04:41:21;;;;;;;10.57;4.68;;;8.60;99.90;;;;;;5061979;28;20074;-78
2022/05/22 04:43:47;;;;;;;8.88;4.90;;;8.70;99.90;;;;;;5059856;28;20139;-78
2022/05/22 04:46:13;;;;;;;8.27;4.82;;;8.80;99.90;;;;;;5078449;28;20116;-78
2022/05/22 04:48:38;;;;;;;13.05;6.20;;;8.80;99.90;;;;;;5059720;28;20078;-78
2022/05/22 04:51:04;;;;;;;11.30;5.50;;;8.90;99.90;;;;;;5065144;28;20493;-78
2022/05/22 04:53:30;;;;;;;9.18;5.57;;;8.90;99.90;;;;;;5069092;28;20047;-78
2022/05/22 04:55:56;;;;;;;10.77;5.53;;;8.90;99.90;;;;;;5068014;28;20058;-78
2022/05/22 04:58:22;;;;;;;15.98;7.30;;;9.00;99.90;;;;;;5065392;28;20074;-78
2022/05/22 05:00:48;;;;;;;10.05;5.45;;;9.10;99.90;;;;;;5069378;28;20048;-78
2022/05/22 05:03:14;;;;;;;8.48;5.75;;;9.10;99.90;;;;;;5068628;28;20159;-78
2022/05/22 05:05:40;;;;;;;8.75;5.53;;;9.20;99.90;;;;;;5049013;28;20105;-78
2022/05/22 05:08:05;;;;;;;10.52;5.25;;;9.20;99.90;;;;;;5064606;28;20086;-78
2022/05/22 05:10:31;;;;;;;7.88;5.15;;;9.30;99.90;;;;;;5066909;28;20047;-78
2022/05/22 05:12:57;;;;;;;8.90;5.15;;;9.40;99.90;;;;;;5068216;28;20071;-78
2022/05/22 05:15:24;;;;;;;11.52;6.32;;;9.50;99.90;;;;;;5065711;28;20482;-78
2022/05/22 05:17:50;;;;;;;10.93;5.63;;;9.50;99.90;;;;;;5067285;28;20044;-78
2022/05/22 05:20:18;;;;;;;9.20;5.38;;;9.60;99.90;;;;;;5060435;28;20055;-78
2022/05/22 05:22:44;;;;;;;14.85;7.00;;;9.70;99.90;;;;;;5046992;28;20041;-78
2022/05/22 05:25:13;;;;;;;15.75;6.82;;;9.90;99.90;;;;;;5067248;28;20707;-78
2022/05/22 05:27:38;;;;;;;15.35;6.47;;;9.90;99.90;;;;;;5064593;28;20540;-78
2022/05/22 05:30:05;;;;;;;10.77;6.10;;;10.00;99.90;;;;;;5068701;28;20036;-78
2022/05/22 05:32:31;;;;;;;16.33;8.27;;;10.20;99.90;;;;;;5067951;28;20449;-78
2022/05/22 05:35:03;;;;;;;13.00;7.45;;;10.20;99.90;;;;;;5067479;28;20037;-78
2022/05/22 05:37:28;;;;;;;9.52;6.35;;;10.30;99.90;;;;;;5065184;28;20052;-79
2022/05/22 05:39:54;;;;;;;17.85;8.40;;;10.40;99.90;;;;;;5066191;28;20028;-78
2022/05/22 05:42:21;;;;;;;12.30;7.13;;;10.60;99.90;;;;;;5064598;28;20044;-79
2022/05/22 05:44:47;;;;;;;12.38;6.88;;;10.70;99.90;;;;;;5064753;28;20040;-79
2022/05/22 05:47:13;;;;;;;14.38;6.22;;;10.80;99.90;;;;;;5065003;28;20126;-78
2022/05/22 05:49:39;;;;;;;14.63;7.40;;;10.90;99.90;;;;;;5066710;28;20098;-78
2022/05/22 05:52:05;;;;;;;15.15;6.95;;;11.00;99.90;;;;;;5064350;28;20032;-78
2022/05/22 05:54:31;;;;;;;11.70;7.15;;;11.10;99.90;;;;;;5063776;28;20406;-79
2022/05/22 05:56:58;;;;;;;14.20;9.30;;;11.20;99.90;;;;;;5068251;28;20036;-79
2022/05/22 05:59:24;;;;;;;15.57;7.57;;;11.30;99.90;;;;;;5065462;28;20520;-78
2022/05/22 06:01:50;;;;;;;10.55;6.50;;;11.40;99.90;;;;;;5067604;28;20040;-78
2022/05/22 06:04:15;;;;;;;14.15;7.80;;;11.50;99.90;;;;;;5068364;28;20501;-78
2022/05/22 06:06:41;;;;;;;15.95;8.30;;;11.70;99.90;;;;;;5066398;28;20094;-79
2022/05/22 06:09:07;;;;;;;11.38;7.10;;;11.80;99.90;;;;;;5066497;28;20068;-78
2022/05/22 06:11:32;;;;;;;18.02;8.23;;;11.90;99.90;;;;;;5066917;28;20040;-79
2022/05/22 06:13:58;;;;;;;15.65;7.57;;;12.00;99.90;;;;;;5066737;28;20040;-78
2022/05/22 06:16:25;;;;;;;14.02;7.57;;;12.20;99.90;;;;;;5049263;28;20171;-79
2022/05/22 06:18:51;;;;;;;17.17;7.18;;;12.30;99.90;;;;;;5050104;28;20549;-79
2022/05/22 06:21:19;;;;;;;20.27;6.85;;;12.40;99.90;;;;;;5063778;28;20124;-79
2022/05/22 06:23:45;;;;;;;14.15;7.72;;;12.50;99.90;;;;;;5043993;28;20456;-80
2022/05/22 06:26:14;;;;;;;14.70;6.57;;;12.70;99.90;;;;;;5063507;28;20518;-79
2022/05/22 06:28:40;;;;;;;15.02;7.10;;;12.80;99.90;;;;;;5065366;28;20036;-79
2022/05/22 06:31:06;;;;;;;13.75;6.82;;;12.90;99.90;;;;;;5067169;28;20039;-79
2022/05/22 06:33:34;;;;;;;12.93;7.13;;;13.00;99.90;;;;;;5067531;28;20070;-79
2022/05/22 06:35:59;;;;;;;11.93;6.82;;;13.30;99.90;;;;;;5067005;28;20036;-80
2022/05/22 06:41:10;;;;;;;11.93;6.22;;;13.90;99.90;;;;;;5067117;28;20052;-79
2022/05/22 06:43:36;;;;;;;18.05;6.65;;;14.20;99.90;;;;;;5066725;28;20037;-79
2022/05/22 06:46:03;;;;;;;14.80;5.35;;;14.50;99.90;;;;;;5066482;28;20591;-80
2022/05/22 06:48:29;;;;;;;13.45;5.88;;;14.70;99.90;;;;;;5064572;28;20071;-80
2022/05/22 06:50:55;;;;;;;11.00;5.32;;;15.00;99.90;;;;;;5064794;28;20047;-79
2022/05/22 06:53:21;;;;;;;15.88;5.20;;;15.10;99.90;;;;;;5061909;28;20032;-80
2022/05/22 06:55:48;;;;;;;12.05;4.70;;;15.30;99.90;;;;;;5065871;28;20394;-80
2022/05/22 06:58:14;;;;;;;11.27;5.05;;;15.60;99.90;;;;;;5063735;28;20121;-80
2022/05/22 07:00:40;;;;;;;15.43;5.22;;;15.60;99.90;;;;;;5065626;28;20112;-79
2022/05/22 07:03:05;;;;;;;11.57;5.28;;;15.70;99.90;;;;;;5065960;28;20068;-80
2022/05/22 07:05:31;;;;;;;11.88;4.93;;;15.90;99.90;;;;;;5067602;28;20041;-81
2022/05/22 07:07:57;;;;;;;11.27;4.25;;;16.00;99.90;;;;;;5061442;28;20498;-80
2022/05/22 07:11:38;;;;;;;9.80;3.88;;;16.20;99.90;;;;;;5064820;28;20131;-80
2022/05/22 07:13:08;;;;;;;8.48;3.55;;;16.30;99.90;;;;;;5062001;28;20040;-79
2022/05/22 07:15:33;;;;;;;7.55;1.95;;;16.40;99.90;;;;;;5066084;28;20040;-79
2022/05/22 07:17:59;;;;;;;8.63;2.15;;;16.60;99.90;;;;;;5065171;28;20086;-79
2022/05/22 07:20:24;;;;;;;7.88;3.47;;;16.70;99.90;;;;;;5064258;28;20037;-79
2022/05/22 07:22:50;;;;;;;5.30;1.88;;;16.80;99.90;;;;;;5062845;28;20064;-79
2022/05/22 07:25:15;;;;;;;4.63;1.65;;;16.90;99.90;;;;;;5048551;28;20033;-79
2022/05/22 07:27:41;;;;;;;6.05;2.50;;;17.10;99.90;;;;;;5062618;28;20428;-79
2022/05/22 07:30:07;;;;;;;7.97;3.17;;;17.30;99.90;;;;;;5065446;28;20516;-80
2022/05/22 07:32:33;;;;;;;6.53;2.47;;;17.50;99.90;;;;;;5064904;28;20051;-79
2022/05/22 07:34:59;;;;;;;8.57;2.40;;;17.60;99.90;;;;;;5065214;28;20052;-80
2022/05/22 07:37:25;;;;;;;5.07;1.55;;;17.80;99.90;;;;;;5066950;28;20448;-79
2022/05/22 07:39:51;;;;;;;5.60;1.30;;;17.90;99.90;;;;;;5067189;28;20028;-80
2022/05/22 07:42:16;;;;;;;5.57;1.20;;;18.00;99.90;;;;;;5067298;28;20047;-79
2022/05/22 07:44:42;;;;;;;11.20;3.53;;;18.20;99.90;;;;;;5065448;28;20037;-80
2022/05/22 07:47:08;;;;;;;8.02;1.98;;;18.20;99.90;;;;;;5041917;28;20067;-80
2022/05/22 07:52:17;;;;;;;5.28;1.58;;;18.40;99.90;;;;;;5061729;28;20036;-80
2022/05/22 07:54:43;;;;;;;7.78;2.03;;;18.40;99.90;;;;;;5059897;28;20091;-80
2022/05/22 07:57:08;;;;;;;6.38;1.63;;;18.30;99.90;;;;;;5064393;28;20104;-79
2022/05/22 07:59:35;;;;;;;7.32;1.60;;;18.40;99.90;;;;;;5066732;28;20044;-80
2022/05/22 08:02:03;;;;;;;5.57;1.13;;;18.60;99.90;;;;;;5064296;28;20047;-79
2022/05/22 08:04:29;;;;;;;5.57;1.48;;;18.80;99.90;;;;;;5067415;28;20051;-79
2022/05/22 08:06:55;;;;;;;5.85;1.73;;;18.90;99.90;;;;;;5066494;28;20142;-80
2022/05/22 08:09:20;;;;;;;4.68;1.30;;;19.10;99.90;;;;;;5064574;28;20041;-79
2022/05/22 08:11:46;;;;;;;9.68;2.85;;;19.30;99.90;;;;;;5065635;28;20048;-80
2022/05/22 08:14:12;;;;;;;27.92;18.58;;;19.60;99.90;;;;;;5065929;28;20067;-79
2022/05/22 08:16:38;;;;;;;10.77;4.05;;;19.80;99.90;;;;;;5063115;28;20410;-79
2022/05/22 08:19:04;;;;;;;75.78;47.88;;;20.00;99.90;;;;;;5064104;28;20037;-80
2022/05/22 08:21:29;;;;;;;48.60;36.53;;;20.30;99.90;;;;;;5062756;28;20412;-79
2022/05/22 08:23:55;;;;;;;12.70;9.00;;;20.50;99.90;;;;;;5067017;28;20120;-79
2022/05/22 08:26:20;;;;;;;8.48;4.80;;;20.40;99.10;;;;;;5067290;28;20512;-79
2022/05/22 08:28:46;;;;;;;9.00;4.40;;;20.60;98.20;;;;;;5069601;28;20032;-79
2022/05/22 08:31:11;;;;;;;6.78;1.70;;;20.70;99.70;;;;;;5070931;28;20051;-79
2022/05/22 08:33:37;;;;;;;5.53;1.50;;;20.70;98.40;;;;;;5068351;28;20055;-80
2022/05/22 08:36:03;;;;;;;7.95;1.75;;;20.60;97.40;;;;;;5051124;28;20041;-79
2022/05/22 08:38:29;;;;;;;5.35;1.98;;;20.50;96.20;;;;;;5067649;28;20046;-79
2022/05/22 08:41:09;;;;;;;5.85;1.60;;;20.40;94.50;;;;;;5069386;28;20398;-78
2022/05/22 08:43:56;;;;;;;5.50;1.50;;;20.40;95.10;;;;;;5065192;28;20526;-78
2022/05/22 08:46:51;;;;;;;7.47;1.65;;;20.90;90.70;;;;;;5065434;28;20032;-78
2022/05/22 08:49:22;;;;;;;9.60;1.90;;;20.60;91.20;;;;;;5061165;28;20036;-78
2022/05/22 08:51:52;;;;;;;9.10;1.67;;;20.50;93.30;;;;;;5061402;28;20040;-78
2022/05/22 08:54:34;;;;;;;8.55;1.95;;;20.60;93.10;;;;;;5062588;28;20127;-78
2022/05/22 08:59:53;;;;;;;5.38;1.77;;;20.20;94.00;;;;;;5060251;28;20119;-78
2022/05/22 09:02:34;;;;;;;6.05;1.40;;;20.20;93.90;;;;;;5064746;28;20036;-78
2022/05/22 09:05:05;;;;;;;5.00;1.67;;;20.50;90.90;;;;;;5068661;28;20117;-78
2022/05/22 09:07:59;;;;;;;6.15;2.17;;;20.70;91.40;;;;;;5066814;28;20041;-78
2022/05/22 09:10:47;;;;;;;5.22;1.13;;;20.50;91.80;;;;;;5048608;28;20060;-78
2022/05/22 09:13:26;;;;;;;6.85;1.17;;;19.90;91.20;;;;;;5064833;28;20036;-78
2022/05/22 09:16:00;;;;;;;5.63;0.85;;;19.80;92.10;;;;;;5048900;28;20045;-77
2022/05/22 09:18:29;;;;;;;4.45;1.00;;;19.60;91.80;;;;;;5061010;28;20523;-77
2022/05/22 09:20:57;;;;;;;12.77;1.10;;;19.60;90.80;;;;;;5063492;28;20499;-78
2022/05/22 09:23:37;;;;;;;4.30;0.88;;;19.80;91.00;;;;;;5063531;28;20067;-78
2022/05/22 09:26:14;;;;;;;4.70;1.10;;;20.30;87.30;;;;;;5050576;28;20029;-77
2022/05/22 09:28:53;;;;;;;5.00;0.68;;;20.70;86.00;;;;;;5062606;28;20451;-77
2022/05/22 09:31:43;;;;;;;4.50;0.80;;;20.90;85.70;;;;;;5068809;28;20052;-77
2022/05/22 09:34:28;;;;;;;6.18;0.63;;;20.90;83.80;;;;;;5065185;28;20488;-76
2022/05/22 09:37:08;;;;;;;114.80;81.10;;;20.70;85.90;;;;;;5067767;28;20487;-76
2022/05/22 09:39:57;;;;;;;38.65;26.05;;;20.50;84.50;;;;;;5063743;28;20036;-76
2022/05/22 09:42:38;;;;;;;40.67;22.38;;;20.30;86.00;;;;;;5066738;28;20044;-76
2022/05/22 09:45:41;;;;;;;24.23;15.57;;;19.90;85.00;;;;;;5066003;28;20091;-77
2022/05/22 09:48:20;;;;;;;32.65;28.48;;;19.90;82.80;;;;;;5074581;28;20135;-76
2022/05/22 09:50:57;;;;;;;4.00;0.88;;;20.20;86.20;;;;;;5063652;28;20045;-77
2022/05/22 09:53:50;;;;;;;3.13;0.68;;;20.60;84.40;;;;;;5065200;28;20033;-76
2022/05/22 09:56:25;;;;;;;2.70;0.30;;;20.70;79.00;;;;;;5064938;28;20037;-77
2022/05/22 09:59:18;;;;;;;5.97;0.60;;;20.70;81.50;;;;;;5065652;28;20055;-77
2022/05/22 10:01:49;;;;;;;4.80;0.60;;;20.30;79.80;;;;;;5056324;28;20041;-77
2022/05/22 10:04:33;;;;;;;2.28;0.70;;;20.00;81.70;;;;;;5042378;28;20059;-77
2022/05/22 10:07:12;;;;;;;6.00;1.05;;;20.10;79.70;;;;;;5077160;28;20507;-77
2022/05/22 10:10:01;;;;;;;7.70;0.65;;;20.20;81.70;;;;;;5063907;28;20076;-77
2022/05/22 10:12:48;;;;;;;4.03;0.50;;;20.40;83.50;;;;;;5077563;28;20036;-77
2022/05/22 10:15:23;;;;;;;5.65;1.45;;;20.40;78.30;;;;;;5064816;28;20036;-77
2022/05/22 10:17:55;;;;;;;8.05;1.08;;;20.50;84.70;;;;;;5065809;28;20045;-77
2022/05/22 10:20:26;;;;;;;2.85;0.50;;;20.90;86.20;;;;;;5066883;28;20036;-77
2022/05/22 10:23:36;;;;;;;2.95;0.65;;;21.70;82.40;;;;;;5059220;28;20095;-77
2022/05/22 10:26:18;;;;;;;9.52;1.90;;;22.40;74.70;;;;;;5064853;28;20124;-77
2022/05/22 10:28:56;;;;;;;5.35;1.17;;;22.30;78.10;;;;;;5064640;28;20455;-77
2022/05/22 10:31:46;;;;;;;5.72;2.15;;;22.20;75.90;;;;;;5045842;28;20424;-78
2022/05/22 10:34:17;;;;;;;7.20;0.77;;;22.40;75.80;;;;;;5063498;28;20049;-78
2022/05/22 10:36:54;;;;;;;7.95;0.63;;;22.80;78.20;;;;;;5068469;28;20509;-77
2022/05/22 10:39:20;;;;;;;9.48;1.90;;;23.20;71.80;;;;;;5072160;28;20095;-78
2022/05/22 10:44:53;;;;;;;5.60;0.70;;;23.20;71.90;;;;;;5069985;28;20048;-78
2022/05/22 10:47:33;;;;;;;4.68;0.80;;;23.30;73.30;;;;;;5069668;28;20067;-78
2022/05/22 10:50:01;;;;;;;2.00;0.80;;;23.40;74.10;;;;;;5067367;28;20041;-78
2022/05/22 10:52:34;;;;;;;2.15;0.70;;;23.40;74.00;;;;;;5070730;28;20041;-78
2022/05/22 10:55:01;;;;;;;6.32;1.40;;;23.40;72.00;;;;;;5067630;28;20043;-78
2022/05/22 10:57:30;;;;;;;3.28;0.60;;;23.40;71.40;;;;;;5051228;28;20112;-78
2022/05/22 10:59:56;;;;;;;3.08;0.60;;;23.10;70.60;;;;;;5067405;28;20040;-77
2022/05/22 11:02:24;;;;;;;4.63;0.82;;;23.00;70.30;;;;;;5050728;28;20078;-77
2022/05/22 11:04:52;;;;;;;7.53;1.67;;;22.50;70.20;;;;;;5065590;28;20848;-78
2022/05/22 11:07:33;;;;;;;4.65;1.10;;;21.90;71.50;;;;;;5050789;28;20040;-78
2022/05/22 11:10:29;;;;;;;3.33;0.77;;;21.80;70.20;;;;;;5062286;28;20048;-78
2022/05/22 11:13:04;;;;;;;4.65;0.63;;;21.80;73.40;;;;;;5067960;28;20498;-78
2022/05/22 11:15:31;;;;;;;;;;;22.00;71.40;;;;;;5082185;28;20051;-78
2022/05/22 11:18:26;;;;;;;2.72;0.73;;;21.90;70.70;;;;;;5067129;28;19982;-78
2022/05/22 11:21:04;;;;;;;5.30;0.60;;;22.00;71.70;;;;;;5071381;28;20098;-78
2022/05/22 11:23:51;;;;;;;4.75;0.82;;;22.10;69.80;;;;;;5071305;28;20040;-78
2022/05/22 11:26:32;;;;;;;3.30;1.08;;;22.50;71.30;;;;;;5071043;28;20043;-78
2022/05/22 11:29:01;;;;;;;5.40;0.50;;;23.00;68.50;;;;;;5058450;28;20505;-78
2022/05/22 11:31:58;;;;;;;3.60;0.60;;;23.10;68.20;;;;;;5051618;28;20051;-78
2022/05/22 11:34:53;;;;;;;5.55;0.50;;;23.70;62.80;;;;;;5070820;28;20169;-78
2022/05/22 11:37:47;;;;;;;2.75;0.82;;;23.90;64.20;;;;;;5070962;28;20086;-78
2022/05/22 11:40:35;;;;;;;6.22;0.60;;;24.30;65.70;;;;;;5050695;28;20041;-78
2022/05/22 11:43:27;;;;;;;3.13;0.43;;;24.60;63.90;;;;;;5050471;28;20063;-78
2022/05/22 11:46:01;;;;;;;2.60;0.30;;;24.70;62.80;;;;;;5050366;28;20041;-78
2022/05/22 11:49:00;;;;;;;2.53;0.50;;;24.80;62.10;;;;;;5059184;28;20032;-78
2022/05/22 11:51:49;;;;;;;4.70;0.70;;;24.90;60.00;;;;;;5070629;28;20043;-78
2022/05/22 11:54:45;;;;;;;5.25;0.70;;;24.90;61.00;;;;;;5071150;28;20097;-78
2022/05/22 11:57:23;;;;;;;2.53;0.60;;;25.40;62.30;;;;;;5070393;28;20068;-78
2022/05/22 12:00:02;;;;;;;4.60;0.63;;;25.90;63.50;;;;;;5068960;28;20052;-78
2022/05/22 12:03:04;;;;;;;2.88;0.75;;;26.30;62.80;;;;;;5070786;28;20044;-79
2022/05/22 12:05:57;;;;;;;2.65;0.50;;;26.80;57.40;;;;;;5054945;28;20101;-79
2022/05/22 12:08:47;;;;;;;3.42;0.40;;;27.10;58.70;;;;;;5060297;28;20033;-78
2022/05/22 12:11:28;;;;;;;2.95;0.47;;;27.10;59.10;;;;;;5034595;28;20195;-79
2022/05/22 12:14:19;;;;;;;2.30;0.30;;;26.80;57.80;;;;;;5050865;28;20128;-78
2022/05/22 12:17:01;;;;;;;5.00;0.90;;;26.30;57.60;;;;;;5050716;28;20488;-78
2022/05/22 12:19:51;;;;;;;2.95;0.40;;;25.40;58.30;;;;;;5070280;28;20116;-78
2022/05/22 12:23:07;;;;;;;3.83;0.88;;;24.50;62.00;;;;;;5069943;28;20593;-78
2022/05/22 12:25:16;;;;;;;2.42;0.63;;;23.80;62.30;;;;;;5070026;28;20040;-78
2022/05/22 12:27:41;;;;;;;5.40;0.85;;;23.10;61.70;;;;;;5069244;28;20045;-78
2022/05/22 12:30:36;;;;;;;4.70;0.32;;;22.50;64.20;;;;;;5069866;28;20067;-78
2022/05/22 12:33:11;;;;;;;3.60;0.47;;;22.10;66.10;;;;;;5052995;28;20051;-78
2022/05/22 12:35:40;;;;;;;6.95;1.38;;;21.80;66.60;;;;;;5069696;28;20044;-78
2022/05/22 12:38:12;;;;;;;3.20;0.50;;;21.50;67.60;;;;;;5062054;28;20415;-78
2022/05/22 12:41:27;;;;;;;5.47;0.60;;;21.40;67.20;;;;;;5049668;28;20097;-78
2022/05/22 12:43:56;;;;;;;5.75;0.93;;;21.40;69.20;;;;;;5049688;28;20052;-78
2022/05/22 12:46:24;;;;;;;6.15;0.75;;;21.20;68.10;;;;;;5049661;28;20044;-78
2022/05/22 12:48:51;;;;;;;1.70;0.30;;;21.10;68.00;;;;;;5046221;28;20402;-78
2022/05/22 12:51:35;;;;;;;3.78;0.60;;;21.20;69.20;;;;;;5069746;28;20044;-78
2022/05/22 12:54:22;;;;;;;4.20;0.75;;;21.30;67.70;;;;;;5069842;28;20040;-78
2022/05/22 12:56:49;;;;;;;4.30;0.60;;;21.40;67.30;;;;;;5069387;28;20044;-78
2022/05/22 12:59:25;;;;;;;2.40;0.57;;;21.50;68.50;;;;;;5051987;28;20036;-78
2022/05/22 13:01:56;;;;;;;8.60;2.08;;;21.90;67.40;;;;;;5053198;28;20093;-78
2022/05/22 13:04:29;;;;;;;1.92;0.60;;;22.50;67.70;;;;;;5069605;28;20118;-79
2022/05/22 13:07:07;;;;;;;3.88;0.45;;;23.00;65.80;;;;;;5069271;28;20041;-79
2022/05/22 13:09:41;;;;;;;4.50;0.80;;;23.60;62.20;;;;;;5051114;28;20399;-79
2022/05/22 13:12:27;;;;;;;4.30;0.88;;;24.10;62.90;;;;;;5053044;28;20518;-78
2022/05/22 13:15:15;;;;;;;2.22;0.30;;;24.20;59.10;;;;;;5053311;28;20392;-79
2022/05/22 13:17:53;;;;;;;2.13;0.40;;;24.50;59.60;;;;;;5055917;28;20033;-79
2022/05/22 13:20:24;;;;;;;1.58;0.43;;;25.20;60.20;;;;;;5073615;28;20033;-79
2022/05/22 13:23:02;;;;;;;2.22;0.38;;;25.50;58.60;;;;;;5073383;28;20483;-79
2022/05/22 13:25:31;;;;;;;4.00;0.60;;;25.70;54.50;;;;;;5073340;28;20033;-79
2022/05/22 13:27:57;;;;;;;1.80;0.38;;;25.90;57.90;;;;;;5067785;28;20086;-79
2022/05/22 13:30:30;;;;;;;5.68;0.65;;;26.20;56.70;;;;;;5053276;28;20135;-79
2022/05/22 13:33:08;;;;;;;4.03;0.93;;;26.20;58.10;;;;;;5054136;28;20045;-79